Time;durP1;ratioP1;P1;durP2;ratioP2;P2;SDS_P1;SDS_P2;PMS_P1;PMS_P2;Temp;Humidity;BMP_temperature;BMP_pressure;BME280_temperature;BME280_humidity;BME280_pressure;Samples;Min_cycle;Max_cycle;Signal;HPM_P1;HPM_P2
2022/08/07 00:00:37;;;;;;;;;27.50;27.00;;;;;29.75;nan;99119.38;5127775;27;8868;-76
2022/08/07 00:03:09;;;;;;;;;27.25;26.75;;;;;29.59;nan;99119.81;5126728;27;9581;-77
2022/08/07 00:05:38;;;;;;;;;26.25;25.25;;;;;29.62;nan;99119.56;5129781;27;9564;-76
2022/08/07 00:08:06;;;;;;;;;28.75;26.50;;;;;29.69;nan;99123.41;5126925;27;8858;-77
2022/08/07 00:10:36;;;;;;;;;28.25;26.25;;;;;29.62;nan;99124.94;5130051;27;8865;-74
2022/08/07 00:13:18;;;;;;;;;36.50;31.00;;;;;29.88;nan;99122.69;5149719;27;8855;-72
2022/08/07 00:15:53;;;;;;;;;28.50;27.25;;;;;29.73;nan;99124.03;5131687;27;8847;-76
2022/08/07 00:18:24;;;;;;;;;33.75;31.75;;;;;29.77;nan;99136.22;5131412;27;8851;-74
2022/08/07 00:20:55;;;;;;;;;31.75;30.25;;;;;29.71;nan;99134.03;5131781;27;8808;-73
2022/08/07 00:23:25;;;;;;;;;33.75;31.25;;;;;29.62;nan;99134.81;5130874;27;8851;-75
2022/08/07 00:25:56;;;;;;;;;30.50;28.00;;;;;29.72;nan;99133.91;5132777;27;8889;-76
2022/08/07 00:28:30;;;;;;;;;33.00;31.00;;;;;29.69;nan;99128.78;5149322;27;8843;-75
2022/08/07 00:31:05;;;;;;;;;33.50;30.00;;;;;29.48;nan;99128.81;5129658;27;9093;-75
2022/08/07 00:33:41;;;;;;;;;33.00;32.00;;;;;29.66;nan;99128.19;5109957;27;8879;-76
2022/08/07 00:36:09;;;;;;;;;31.75;29.25;;;;;29.59;nan;99132.41;5104670;27;8876;-76
2022/08/07 00:38:38;;;;;;;;;30.75;29.00;;;;;29.44;nan;99132.75;5131572;27;8839;-78
2022/08/07 00:41:07;;;;;;;;;31.75;30.25;;;;;29.37;nan;99128.88;5134468;27;8824;-77
2022/08/07 00:43:38;;;;;;;;;36.00;32.50;;;;;29.62;nan;99140.19;5117410;27;8930;-77
2022/08/07 00:46:27;;;;;;;;;29.75;29.25;;;;;29.58;nan;99136.06;5121250;27;8871;-75
2022/08/07 00:49:00;;;;;;;;;33.75;31.00;;;;;29.43;nan;99140.94;5114423;27;8858;-76
2022/08/07 00:51:30;;;;;;;;;34.50;32.00;;;;;29.12;nan;99135.44;5132532;27;8852;-76
2022/08/07 00:54:18;;;;;;;;;29.25;27.75;;;;;28.98;nan;99136.63;5099313;27;9623;-76
2022/08/07 00:56:48;;;;;;;;;31.50;29.75;;;;;29.01;nan;99143.56;5096861;27;8842;-76
2022/08/07 00:59:19;;;;;;;;;31.50;28.75;;;;;28.89;nan;99140.91;5132816;27;8845;-76
2022/08/07 01:02:04;;;;;;;;;32.50;30.75;;;;;28.70;nan;99143.44;5096617;27;8837;-77
2022/08/07 01:04:38;;;;;;;;;29.25;28.75;;;;;28.72;nan;99160.25;5113430;27;8852;-74
2022/08/07 01:07:11;;;;;;;;;26.25;24.50;;;;;28.87;nan;99150.09;5114683;27;8847;-77
2022/08/07 01:09:41;;;;;;;;;24.00;23.00;;;;;29.02;nan;99161.34;5133026;27;8872;-75
2022/08/07 01:12:30;;;;;;;;;32.00;30.25;;;;;28.90;nan;99168.59;5130998;27;8843;-75
2022/08/07 01:15:01;;;;;;;;;38.25;33.50;;;;;29.02;nan;99169.41;5091980;28;8966;-77
2022/08/07 01:17:33;;;;;;;;;31.75;30.75;;;;;28.96;nan;99168.97;5108744;28;8831;-75
2022/08/07 01:20:07;;;;;;;;;31.25;29.00;;;;;28.98;nan;99174.22;5090930;28;9828;-76
2022/08/07 01:22:40;;;;;;;;;31.50;30.00;;;;;28.95;nan;99171.75;5092053;28;8867;-76
2022/08/07 01:25:16;;;;;;;;;27.75;27.75;;;;;29.00;nan;99179.41;5074832;28;8836;-76
2022/08/07 01:28:05;;;;;;;;;34.50;31.50;;;;;29.32;nan;99177.63;5088464;28;8842;-76
2022/08/07 01:30:36;;;;;;;;;30.25;29.00;;;;;29.64;nan;99171.34;5071273;28;8849;-77
2022/08/07 01:33:04;;;;;;;;;23.50;22.75;;;;;29.68;nan;99178.16;5071623;28;8853;-74
2022/08/07 01:35:34;;;;;;;;;26.50;25.00;;;;;29.09;nan;99178.66;5071455;28;8853;-78
2022/08/07 01:38:22;;;;;;;;;26.75;25.00;;;;;28.93;nan;99179.09;5078373;28;8870;-75
2022/08/07 01:40:57;;;;;;;;;22.50;22.25;;;;;28.90;nan;99182.03;5091598;28;8947;-76
2022/08/07 01:43:27;;;;;;;;;22.50;22.50;;;;;29.02;nan;99181.03;5079936;28;8847;-75
2022/08/07 01:46:03;;;;;;;;;24.25;22.50;;;;;29.32;nan;99174.94;5100691;27;8865;-78
2022/08/07 01:48:36;;;;;;;;;22.50;20.00;;;;;29.50;nan;99175.19;5113086;27;8900;-76
2022/08/07 01:51:18;;;;;;;;;18.00;16.25;;;;;29.23;nan;99189.16;5112277;27;8857;-76
2022/08/07 01:54:11;;;;;;;;;19.00;16.00;;;;;29.18;nan;99199.41;5098687;27;8939;-79
2022/08/07 01:57:05;;;;;;;;;15.25;15.25;;;;;29.42;nan;99193.81;5105563;27;8859;-75
2022/08/07 01:59:42;;;;;;;;;17.00;15.00;;;;;29.21;nan;99188.44;5133853;27;8855;-76
2022/08/07 02:02:17;;;;;;;;;17.80;15.40;;;;;29.08;nan;99201.13;5134251;27;8824;-74
2022/08/07 02:05:05;;;;;;;;;13.60;13.20;;;;;29.05;nan;99209.44;5116279;27;8851;-75
2022/08/07 02:07:39;;;;;;;;;13.20;12.40;;;;;29.44;nan;99216.03;5116773;27;8831;-77
2022/08/07 02:10:26;;;;;;;;;12.80;11.60;;;;;28.99;nan;99220.69;5128683;27;8845;-78
2022/08/07 02:12:59;;;;;;;;;10.00;10.00;;;;;28.49;nan;99213.06;5112576;27;8926;-76
2022/08/07 02:15:37;;;;;;;;;12.40;10.60;;;;;28.36;nan;99214.03;5132679;27;8877;-74
2022/08/07 02:18:09;;;;;;;;;8.80;8.80;;;;;27.81;nan;99199.59;5153747;27;8831;-76
2022/08/07 02:20:42;;;;;;;;;9.40;9.40;;;;;27.54;nan;99206.13;5133580;27;8855;-76
2022/08/07 02:23:13;;;;;;;;;10.40;9.20;;;;;27.56;nan;99212.22;5133013;27;8859;-76
2022/08/07 02:25:45;;;;;;;;;10.80;10.80;;;;;27.64;nan;99221.47;5132409;27;8835;-76
2022/08/07 02:28:38;;;;;;;;;10.00;10.00;;;;;27.51;nan;99230.44;5133383;27;8835;-74
2022/08/07 02:31:08;;;;;;;;;8.60;8.60;;;;;27.52;nan;99226.78;5133526;27;8839;-77
2022/08/07 02:33:50;;;;;;;;;9.40;9.40;;;;;27.42;nan;99215.91;5133154;27;8827;-75
2022/08/07 02:36:32;;;;;;;;;10.40;9.80;;;;;27.07;nan;99221.22;5088031;27;8827;-77
2022/08/07 02:39:12;;;;;;;;;8.60;8.60;;;;;26.74;nan;99213.84;5133152;27;8911;-75
2022/08/07 02:41:49;;;;;;;;;11.40;10.80;;;;;26.60;nan;99221.06;5131738;27;8861;-74
2022/08/07 02:44:27;;;;;;;;;10.20;9.60;;;;;26.61;nan;99228.09;5132734;27;9552;-74
2022/08/07 02:47:06;;;;;;;;;9.00;9.00;;;;;26.94;nan;99234.66;5133007;27;8830;-76
2022/08/07 02:49:36;;;;;;;;;11.00;8.60;;;;;27.05;nan;99231.16;5132258;27;8843;-76
2022/08/07 02:52:30;;;;;;;;;10.00;9.60;;;;;27.10;nan;99229.00;5106939;28;8906;-77
2022/08/07 02:55:07;;;;;;;;;10.60;10.40;;;;;27.08;nan;99233.63;5073104;28;8906;-75
2022/08/07 02:58:03;;;;;;;;;7.80;7.80;;;;;27.28;nan;99236.66;5088955;28;8901;-76
2022/08/07 03:00:34;;;;;;;;;11.60;10.40;;;;;27.00;nan;99236.03;5090195;28;8858;-75
2022/08/07 03:03:07;;;;;;;;;10.20;10.20;;;;;27.09;nan;99234.47;5089727;28;8978;-76
2022/08/07 03:05:41;;;;;;;;;10.00;10.00;;;;;27.00;nan;99244.06;5107036;28;8851;-75
2022/08/07 03:08:10;;;;;;;;;8.80;8.80;;;;;27.27;nan;99234.97;5089653;28;8955;-76
2022/08/07 03:10:46;;;;;;;;;9.60;9.60;;;;;27.10;nan;99231.69;5086357;28;8945;-76
2022/08/07 03:13:22;;;;;;;;;9.20;8.80;;;;;27.21;nan;99231.75;5072409;28;8855;-76
2022/08/07 03:15:54;;;;;;;;;11.20;10.20;;;;;26.48;nan;99237.94;5089409;28;8824;-78
2022/08/07 03:18:30;;;;;;;;;10.00;8.40;;;;;26.42;nan;99233.03;5089203;28;8831;-77
2022/08/07 03:21:05;;;;;;;;;9.40;8.00;;;;;26.50;nan;99233.34;5087339;28;8844;-76
2022/08/07 03:23:40;;;;;;;;;9.20;9.20;;;;;26.34;nan;99238.09;5090259;27;8834;-75
2022/08/07 03:26:32;;;;;;;;;8.20;8.20;;;;;26.37;nan;99228.03;5129062;27;8862;-76
2022/08/07 03:29:08;;;;;;;;;10.20;10.20;;;;;26.48;nan;99235.28;5110360;27;8845;-75
2022/08/07 03:31:41;;;;;;;;;7.00;6.60;;;;;26.01;nan;99237.69;5128101;27;8830;-76
2022/08/07 03:34:18;;;;;;;;;8.40;7.80;;;;;25.56;nan;99231.81;5111108;27;8876;-76
2022/08/07 03:36:54;;;;;;;;;10.00;10.00;;;;;25.65;nan;99238.34;5140375;27;8843;-75
2022/08/07 03:39:25;;;;;;;;;12.60;12.60;;;;;25.80;nan;99244.44;5131559;27;8830;-76
2022/08/07 03:42:17;;;;;;;;;9.40;9.40;;;;;25.62;nan;99251.91;5085649;28;8830;-75
2022/08/07 03:44:49;;;;;;;;;8.40;7.80;;;;;25.64;nan;99252.66;5069429;28;8874;-73
2022/08/07 03:47:22;;;;;;;;;9.20;8.00;;;;;25.91;nan;99252.59;5066761;28;8877;-75
2022/08/07 03:49:51;;;;;;;;;8.80;8.80;;;;;25.75;nan;99257.28;5065561;28;9617;-75
2022/08/07 03:52:27;;;;;;;;;11.00;11.00;;;;;25.66;nan;99258.75;5017246;28;8935;-76
2022/08/07 03:55:01;;;;;;;;;10.60;10.60;;;;;25.94;nan;99257.75;5058130;28;8950;-73
2022/08/07 03:57:36;;;;;;;;;10.40;10.00;;;;;26.01;nan;99261.72;5068829;28;8940;-75
2022/08/07 04:00:32;;;;;;;;;16.60;16.20;;;;;25.63;nan;99267.84;5068229;28;8979;-75
2022/08/07 04:03:05;;;;;;;;;10.00;10.00;;;;;25.36;nan;99264.34;5076726;28;8901;-75
2022/08/07 04:05:37;;;;;;;;;8.20;8.20;;;;;25.23;nan;99277.63;5064657;28;8966;-75
2022/08/07 04:08:12;;;;;;;;;8.40;8.40;;;;;25.18;nan;99280.56;5064911;28;8844;-75
2022/08/07 04:10:44;;;;;;;;;7.60;7.60;;;;;25.72;nan;99285.03;5078315;28;8851;-76
2022/08/07 04:13:24;;;;;;;;;10.40;9.60;;;;;25.41;nan;99288.91;5097529;27;8863;-76
2022/08/07 04:15:58;;;;;;;;;11.40;10.20;;;;;25.27;nan;99300.47;5149665;27;8855;-75
2022/08/07 04:18:27;;;;;;;;;9.60;8.40;;;;;25.25;nan;99300.56;5152451;27;8870;-75
2022/08/07 04:21:16;;;;;;;;;9.20;9.20;;;;;25.35;nan;99305.31;5114967;28;8839;-75
2022/08/07 04:23:46;;;;;;;;;12.60;12.20;;;;;25.38;nan;99307.81;5107431;28;8848;-75
2022/08/07 04:26:35;;;;;;;;;12.00;11.60;;;;;25.13;nan;99301.38;5089666;28;8867;-75
2022/08/07 04:29:04;;;;;;;;;8.20;8.20;;;;;25.25;nan;99311.25;5069711;28;8868;-75
2022/08/07 04:31:36;;;;;;;;;10.40;9.80;;;;;25.42;nan;99306.63;5068776;28;8861;-73
2022/08/07 04:34:08;;;;;;;;;11.40;11.40;;;;;25.55;nan;99310.22;5068723;28;8834;-75
2022/08/07 04:36:44;;;;;;;;;6.40;6.40;;;;;25.36;nan;99307.03;5047422;28;8852;-77
2022/08/07 04:39:18;;;;;;;;;9.00;9.00;;;;;24.97;nan;99321.97;5048114;28;8840;-75
2022/08/07 04:41:53;;;;;;;;;9.40;9.40;;;;;25.01;nan;99304.81;5048241;28;8938;-75
2022/08/07 04:44:22;;;;;;;;;10.80;10.60;;;;;24.88;nan;99313.59;5064329;28;8863;-75
2022/08/07 04:47:09;;;;;;;;;8.20;7.20;;;;;25.11;nan;99311.28;5065250;28;8879;-75
2022/08/07 04:49:50;;;;;;;;;12.40;12.40;;;;;25.26;nan;99318.31;5048483;28;8847;-75
2022/08/07 04:52:39;;;;;;;;;12.00;11.00;;;;;25.66;nan;99318.34;5067696;28;8895;-75
2022/08/07 04:55:23;;;;;;;;;11.60;9.80;;;;;25.29;nan;99323.47;5085765;28;8853;-75
2022/08/07 04:58:20;;;;;;;;;9.60;9.60;;;;;25.11;nan;99319.28;5068268;28;8865;-75
2022/08/07 05:01:17;;;;;;;;;12.00;11.40;;;;;25.15;nan;99325.28;5084896;28;8988;-76
2022/08/07 05:03:56;;;;;;;;;11.20;9.40;;;;;25.08;nan;99325.69;5068285;28;8846;-75
2022/08/07 05:06:39;;;;;;;;;12.60;11.80;;;;;25.22;nan;99324.78;5084316;28;8877;-75
2022/08/07 05:09:18;;;;;;;;;11.40;11.40;;;;;25.22;nan;99327.47;5086113;28;8887;-76
2022/08/07 05:11:51;;;;;;;;;10.60;10.60;;;;;25.09;nan;99342.53;5090139;28;8855;-77
2022/08/07 05:14:34;;;;;;;;;9.20;9.20;;;;;25.25;nan;99339.75;5070698;28;8836;-76
2022/08/07 05:17:25;;;;;;;;;10.00;9.60;;;;;25.44;nan;99336.75;5100546;28;8871;-76
2022/08/07 05:20:22;;;;;;;;;28.50;26.50;;;;;25.99;nan;99343.81;5061028;28;10041;-74
2022/08/07 05:22:58;;;;;;;;;8.40;8.20;;;;;25.99;nan;99343.81;5102224;28;8970;-75
2022/08/07 05:25:28;;;;;;;;;9.20;9.20;;;;;26.12;nan;99349.16;5105464;28;8845;-76
2022/08/07 05:28:18;;;;;;;;;9.00;8.80;;;;;25.91;nan;99356.78;5106279;28;8932;-74
2022/08/07 05:30:53;;;;;;;;;12.40;11.40;;;;;25.92;nan;99358.53;5065090;28;8887;-75
2022/08/07 05:33:23;;;;;;;;;11.20;10.80;;;;;25.88;nan;99351.66;5048953;28;8864;-75
2022/08/07 05:35:56;;;;;;;;;40.25;35.25;;;;;26.35;nan;99355.63;5049425;28;8971;-73
2022/08/07 05:38:26;;;;;;;;;12.80;12.40;;;;;26.82;nan;99356.81;5047813;28;8954;-76
2022/08/07 05:41:16;;;;;;;;;10.00;10.00;;;;;26.09;nan;99352.06;5039149;28;8859;-75
2022/08/07 05:43:51;;;;;;;;;10.60;9.60;;;;;26.18;nan;99363.94;5050523;28;10366;-75
2022/08/07 05:46:38;;;;;;;;;10.20;10.20;;;;;26.35;nan;99363.66;5050380;28;9692;-75
2022/08/07 05:49:10;;;;;;;;;10.80;8.80;;;;;26.39;nan;99367.81;5070663;28;8977;-76
2022/08/07 05:51:44;;;;;;;;;12.40;11.60;;;;;26.73;nan;99370.84;5069513;28;8853;-76
2022/08/07 05:54:16;;;;;;;;;9.20;9.20;;;;;27.12;nan;99376.97;5053216;28;9591;-70
2022/08/07 05:57:01;;;;;;;;;14.20;12.20;;;;;26.39;nan;99381.19;5066879;28;8861;-70
2022/08/07 05:59:37;;;;;;;;;8.60;8.60;;;;;26.68;nan;99388.19;5066295;28;8862;-72
2022/08/07 06:02:28;;;;;;;;;10.20;10.00;;;;;26.93;nan;99392.66;5095022;27;8883;-73
2022/08/07 06:05:05;;;;;;;;;20.00;17.60;;;;;26.71;nan;99396.88;5147000;27;8926;-75
2022/08/07 06:07:35;;;;;;;;;10.00;10.00;;;;;26.69;nan;99385.38;5077958;27;9085;-73
2022/08/07 06:10:26;;;;;;;;;9.40;9.20;;;;;26.40;nan;99374.84;5126676;27;8901;-74
2022/08/07 06:12:56;;;;;;;;;15.00;12.80;;;;;26.01;nan;99402.47;5090258;27;8926;-70
2022/08/07 06:15:27;;;;;;;;;15.00;15.00;;;;;26.24;nan;99400.97;5077500;27;8869;-73
2022/08/07 06:18:13;;;;;;;;;11.00;11.00;;;;;26.14;nan;99397.19;5147239;27;8830;-74
2022/08/07 06:20:44;;;;;;;;;13.40;13.40;;;;;26.01;nan;99406.03;5125137;27;8853;-76
2022/08/07 06:23:19;;;;;;;;;12.40;10.80;;;;;25.95;nan;99408.25;5109025;28;8853;-75
2022/08/07 06:26:11;;;;;;;;;12.20;12.20;;;;;26.37;nan;99408.97;5119988;27;8835;-79
2022/08/07 06:28:51;;;;;;;;;12.80;10.40;;;;;26.09;nan;99410.88;5109628;27;8850;-80
2022/08/07 06:31:21;;;;;;;;;12.80;12.80;;;;;26.32;nan;99413.81;5129214;27;8849;-78
2022/08/07 06:33:53;;;;;;;;;15.40;15.00;;;;;26.56;nan;99416.59;5108234;28;8933;-73
2022/08/07 06:36:25;;;;;;;;;12.60;12.40;;;;;26.32;nan;99420.00;5124614;27;9591;-73
2022/08/07 06:39:04;;;;;;;;;15.00;13.60;;;;;26.25;nan;99419.53;5112549;27;8871;-76
2022/08/07 06:42:02;;;;;;;;;13.00;13.00;;;;;26.31;nan;99425.44;5109625;27;8843;-72
2022/08/07 06:45:06;;;;;;;;;15.40;13.60;;;;;25.96;nan;99418.00;5086456;28;8869;-75
2022/08/07 06:47:35;;;;;;;;;16.80;16.20;;;;;26.11;nan;99427.66;5077759;28;9536;-80
2022/08/07 06:50:17;;;;;;;;;14.60;13.20;;;;;25.95;nan;99417.09;5069790;28;9026;-76
2022/08/07 06:52:52;;;;;;;;;29.50;25.50;;;;;26.33;nan;99415.50;5052518;28;8842;-80
2022/08/07 06:55:28;;;;;;;;;13.40;12.80;;;;;26.07;nan;99407.44;5034577;28;8870;-76
2022/08/07 06:58:20;;;;;;;;;15.20;12.80;;;;;26.32;nan;99414.66;5080707;28;8858;-76
2022/08/07 07:01:00;;;;;;;;;15.20;12.80;;;;;26.09;nan;99420.66;5069844;28;8849;-77
2022/08/07 07:03:32;;;;;;;;;19.40;17.40;;;;;26.24;nan;99417.00;5064444;28;9668;-69
2022/08/07 07:06:15;;;;;;;;;12.80;12.80;;;;;26.63;nan;99416.13;5046117;28;8860;-71
2022/08/07 07:08:54;;;;;;;;;11.60;11.60;;;;;26.48;nan;99429.63;5032454;28;8867;-67
2022/08/07 07:11:26;;;;;;;;;18.40;16.20;;;;;26.70;nan;99411.19;5048949;28;8847;-70
2022/08/07 07:14:18;;;;;;;;;15.20;13.60;;;;;26.78;nan;99413.31;5038049;28;8856;-70
2022/08/07 07:16:51;;;;;;;;;15.20;15.20;;;;;26.69;nan;99417.47;5065512;28;8952;-68
2022/08/07 07:19:35;;;;;;;;;14.60;14.60;;;;;26.89;nan;99416.09;5063759;28;8898;-70
2022/08/07 07:22:25;;;;;;;;;15.80;15.60;;;;;27.28;nan;99424.97;5064675;28;8836;-69
2022/08/07 07:25:05;;;;;;;;;11.00;11.00;;;;;27.51;nan;99433.19;5088193;28;8831;-70
2022/08/07 07:28:13;;;;;;;;;11.80;11.80;;;;;26.99;nan;99432.38;5085416;28;8916;-70
2022/08/07 07:31:06;;;;;;;;;12.40;11.20;;;;;26.58;nan;99431.59;5085345;28;9048;-75
2022/08/07 07:33:38;;;;;;;;;15.40;15.40;;;;;26.81;nan;99429.19;5086028;28;8844;-72
2022/08/07 07:36:09;;;;;;;;;15.80;15.80;;;;;27.31;nan;99435.44;5108051;28;8879;-71
2022/08/07 07:38:41;;;;;;;;;19.20;18.20;;;;;27.22;nan;99436.97;5107458;28;9586;-74
2022/08/07 07:41:13;;;;;;;;;15.80;14.80;;;;;27.35;nan;99442.31;5107881;28;8865;-73
2022/08/07 07:43:47;;;;;;;;;17.20;14.20;;;;;27.09;nan;99430.75;5108398;28;8859;-72
2022/08/07 07:46:38;;;;;;;;;17.60;16.60;;;;;27.71;nan;99420.97;5107562;28;8945;-68
2022/08/07 07:49:24;;;;;;;;;15.80;15.80;;;;;27.68;nan;99423.91;5107607;28;8844;-67
2022/08/07 07:52:14;;;;;;;;;15.80;14.20;;;;;27.88;nan;99427.78;5114703;27;8847;-70
2022/08/07 07:54:44;;;;;;;;;15.80;15.80;;;;;28.04;nan;99422.19;5125077;27;9875;-72
2022/08/07 07:57:24;;;;;;;;;15.20;15.20;;;;;27.48;nan;99425.34;5107139;28;9001;-71
2022/08/07 08:00:14;;;;;;;;;15.00;15.00;;;;;27.32;nan;99430.97;5107451;28;8872;-78
2022/08/07 08:03:00;;;;;;;;;14.20;14.20;;;;;27.50;nan;99432.31;5076590;28;8853;-77
2022/08/07 08:05:37;;;;;;;;;14.80;14.00;;;;;27.73;nan;99425.28;5107334;28;8829;-76
2022/08/07 08:08:19;;;;;;;;;18.00;16.00;;;;;27.47;nan;99435.22;5125061;27;8857;-77
2022/08/07 08:11:06;;;;;;;;;15.20;14.40;;;;;28.04;nan;99424.84;5117119;28;8836;-76
2022/08/07 08:13:37;;;;;;;;;14.00;14.00;;;;;28.31;nan;99433.47;5096525;28;9594;-77
2022/08/07 08:16:27;;;;;;;;;15.20;15.20;;;;;27.11;nan;99444.00;5090803;28;8917;-75
2022/08/07 08:18:59;;;;;;;;;17.40;15.60;;;;;27.03;nan;99449.91;5107513;28;8837;-72
2022/08/07 08:27:36;;;;;;;;;18.20;18.20;;;;;27.50;nan;99452.88;5108206;28;9694;-75
2022/08/07 08:30:07;;;;;;;;;17.40;15.80;;;;;27.61;nan;99463.69;5108175;28;8895;-82
2022/08/07 08:32:41;;;;;;;;;16.80;16.00;;;;;27.47;nan;99461.13;5127824;27;8846;-71
2022/08/07 08:35:18;;;;;;;;;17.60;16.40;;;;;27.79;nan;99450.78;5131871;27;8915;-69
2022/08/07 08:37:48;;;;;;;;;16.40;16.40;;;;;28.15;nan;99444.53;5150454;27;8953;-71
2022/08/07 08:40:32;;;;;;;;;19.20;18.80;;;;;28.08;nan;99453.13;5130988;27;8850;-71
2022/08/07 08:43:07;;;;;;;;;19.20;17.40;;;;;28.42;nan;99445.22;5139559;27;8846;-76
2022/08/07 08:45:41;;;;;;;;;15.40;15.40;;;;;28.83;nan;99449.22;5131153;27;8878;-72
2022/08/07 08:48:39;;;;;;;;;15.80;14.40;;;;;28.67;nan;99442.38;5120908;27;8878;-73
2022/08/07 08:51:16;;;;;;;;;14.20;14.20;;;;;28.65;nan;99448.84;5092662;27;8852;-71
2022/08/07 08:54:06;;;;;;;;;16.00;15.80;;;;;27.86;nan;99452.00;5148477;27;8827;-68
2022/08/07 08:56:41;;;;;;;;;16.60;15.40;;;;;28.17;nan;99463.19;5148349;27;8930;-71
2022/08/07 08:59:21;;;;;;;;;17.25;17.00;;;;;28.43;nan;99455.84;5080959;27;8898;-70
2022/08/07 09:02:12;;;;;;;;;16.40;16.00;;;;;28.67;nan;99453.13;5151643;27;8843;-72
2022/08/07 09:04:51;;;;;;;;;13.00;13.00;;;;;28.40;nan;99453.38;5146249;27;8834;-71
2022/08/07 09:07:33;;;;;;;;;16.40;15.80;;;;;28.44;nan;99454.84;5087520;27;8877;-70
2022/08/07 09:10:22;;;;;;;;;15.40;15.20;;;;;28.83;nan;99468.91;5131823;27;8834;-73
2022/08/07 09:12:56;;;;;;;;;18.00;17.25;;;;;28.08;nan;99455.81;5092920;27;8843;-73
2022/08/07 09:15:36;;;;;;;;;15.80;14.00;;;;;28.86;nan;99451.69;5098545;27;8973;-73
2022/08/07 09:18:50;;;;;;;;;17.60;15.60;;;;;28.94;nan;99455.50;5128660;27;8856;-70
2022/08/07 09:21:35;;;;;;;;;13.80;12.60;;;;;28.66;nan;99464.84;5122998;27;8910;-72
2022/08/07 09:24:34;;;;;;;;;19.40;17.20;;;;;28.50;nan;99457.06;5115689;27;8879;-77
2022/08/07 09:27:29;;;;;;;;;18.60;18.60;;;;;28.62;nan;99458.00;5139522;27;8843;-80
2022/08/07 09:30:04;;;;;;;;;15.80;15.20;;;;;28.73;nan;99459.84;5102646;27;8834;-79
2022/08/07 09:33:08;;;;;;;;;15.00;14.60;;;;;28.62;nan;99454.44;5112990;27;8849;-78
2022/08/07 09:35:52;;;;;;;;;18.40;17.40;;;;;28.73;nan;99449.09;5105300;27;8831;-78
2022/08/07 09:38:39;;;;;;;;;21.00;19.40;;;;;29.19;nan;99447.34;5145170;27;8829;-79
2022/08/07 09:41:20;;;;;;;;;18.80;17.20;;;;;29.02;nan;99444.16;5132022;27;8845;-80
2022/08/07 09:44:02;;;;;;;;;18.00;18.00;;;;;28.88;nan;99441.69;5128082;27;8880;-77
2022/08/07 09:46:51;;;;;;;;;21.60;16.00;;;;;29.20;nan;99436.47;5142397;27;8967;-72
2022/08/07 09:49:49;;;;;;;;;17.00;17.00;;;;;29.53;nan;99426.69;5131549;27;8841;-80
2022/08/07 09:52:35;;;;;;;;;25.25;24.00;;;;;29.13;nan;99427.19;5130850;27;8882;-79
2022/08/07 09:55:15;;;;;;;;;16.20;15.00;;;;;29.18;nan;99429.53;5101797;27;8880;-78
2022/08/07 09:58:39;;;;;;;;;17.20;17.00;;;;;29.37;nan;99424.38;5112042;27;8971;-79
2022/08/07 10:01:32;;;;;;;;;21.00;21.00;;;;;29.26;nan;99427.06;5112222;27;8825;-80
2022/08/07 10:04:50;;;;;;;;;17.60;17.00;;;;;28.88;nan;99439.00;5130071;27;9598;-81
2022/08/07 10:07:48;;;;;;;;;16.20;15.20;;;;;29.31;nan;99419.50;5128912;27;9040;-81
2022/08/07 10:10:35;;;;;;;;;18.25;17.75;;;;;29.40;nan;99417.94;5138517;27;8902;-81
2022/08/07 10:13:44;;;;;;;;;17.25;16.00;;;;;29.16;nan;99419.75;5112850;27;8851;-78
2022/08/07 10:16:58;;;;;;;;;18.00;18.00;;;;;29.34;nan;99411.22;5128081;27;8843;-79
2022/08/07 10:19:41;;;;;;;;;15.50;15.00;;;;;28.76;nan;99424.72;5129424;27;8845;-75
2022/08/07 10:22:32;;;;;;;;;18.75;18.00;;;;;29.28;nan;99409.00;5093097;27;8896;-78
2022/08/07 10:25:16;;;;;;;;;19.75;17.25;;;;;29.22;nan;99412.19;5137597;27;8861;-80
2022/08/07 10:28:03;;;;;;;;;16.80;16.80;;;;;29.22;nan;99409.50;5123565;27;8849;-79
2022/08/07 10:30:43;;;;;;;;;17.80;15.80;;;;;29.72;nan;99404.53;5114043;27;9008;-79
2022/08/07 10:33:28;;;;;;;;;18.75;18.00;;;;;29.60;nan;99413.59;5072613;27;8861;-80
2022/08/07 10:36:38;;;;;;;;;16.75;16.75;;;;;29.89;nan;99395.94;5083847;27;8821;-80
2022/08/07 10:39:23;;;;;;;;;23.50;22.50;;;;;29.91;nan;99406.59;5126191;27;8923;-77
2022/08/07 10:42:03;;;;;;;;;19.75;18.75;;;;;29.44;nan;99408.63;5114082;27;8845;-81
2022/08/07 10:44:47;;;;;;;;;14.50;14.00;;;;;30.00;nan;99405.81;5107748;27;8869;-78
2022/08/07 10:47:24;;;;;;;;;17.25;17.00;;;;;29.83;nan;99404.53;5089190;28;9011;-76
2022/08/07 10:50:03;;;;;;;;;27.25;25.50;;;;;30.13;nan;99395.72;5105035;28;8845;-79
2022/08/07 10:52:39;;;;;;;;;20.25;18.25;;;;;30.26;nan;99386.59;5106442;28;9591;-79
2022/08/07 10:55:16;;;;;;;;;20.75;19.75;;;;;30.35;nan;99388.53;5066956;28;8833;-74
2022/08/07 10:58:03;;;;;;;;;21.75;18.50;;;;;30.36;nan;99382.19;5092537;28;8861;-69
2022/08/07 11:00:46;;;;;;;;;19.25;18.00;;;;;30.74;nan;99383.41;5109077;28;8892;-72
2022/08/07 11:03:31;;;;;;;;;17.25;16.50;;;;;30.72;nan;99377.31;5109611;28;8829;-82
2022/08/07 11:06:16;;;;;;;;;16.00;15.00;;;;;30.58;nan;99375.78;5107954;28;8861;-79
2022/08/07 11:08:52;;;;;;;;;20.50;19.75;;;;;31.44;nan;99367.38;5088444;28;8840;-79
2022/08/07 11:11:27;;;;;;;;;18.50;18.25;;;;;30.64;nan;99390.56;5092606;28;8828;-80
2022/08/07 11:13:59;;;;;;;;;21.75;20.25;;;;;30.76;nan;99373.34;5074903;28;8910;-79
2022/08/07 11:16:54;;;;;;;;;18.75;17.25;;;;;30.56;nan;99372.38;5092413;28;8954;-82
2022/08/07 11:19:36;;;;;;;;;17.25;17.00;;;;;31.02;nan;99370.22;5091763;28;8982;-81
2022/08/07 11:22:10;;;;;;;;;17.75;17.75;;;;;30.79;nan;99372.22;5088860;28;8883;-81
2022/08/07 11:25:04;;;;;;;;;18.00;17.50;;;;;30.79;nan;99361.44;5105313;28;8851;-82
2022/08/07 11:27:43;;;;;;;;;23.00;20.00;;;;;31.31;nan;99354.16;5070842;28;8847;-74
2022/08/07 11:30:42;;;;;;;;;18.00;17.75;;;;;31.98;nan;99346.28;5088945;28;8874;-79
2022/08/07 11:33:21;;;;;;;;;18.75;16.75;;;;;32.11;nan;99368.44;5105025;28;9626;-75
2022/08/07 11:36:22;;;;;;;;;19.00;18.50;;;;;31.67;nan;99366.16;5124837;27;8825;-81
2022/08/07 11:39:06;;;;;;;;;19.50;19.00;;;;;31.88;nan;99351.69;5100314;28;8911;-83
2022/08/07 11:41:45;;;;;;;;;19.25;17.50;;;;;31.89;nan;99355.22;5108089;28;9007;-85
2022/08/07 11:44:40;;;;;;;;;17.50;17.25;;;;;31.71;nan;99344.31;5090564;28;8864;-85
2022/08/07 11:47:53;;;;;;;;;19.25;18.50;;;;;31.85;nan;99342.03;5113343;27;8825;-84
2022/08/07 11:50:47;;;;;;;;;18.50;18.50;;;;;32.19;nan;99338.03;5108441;27;8862;-83
2022/08/07 11:53:40;;;;;;;;;17.75;17.75;;;;;32.29;nan;99338.00;5109097;27;8862;-81
2022/08/07 11:56:27;;;;;;;;;20.75;20.25;;;;;32.32;nan;99345.84;5112268;27;8935;-79
2022/08/07 11:59:15;;;;;;;;;36.00;32.25;;;;;32.75;nan;99329.09;5109556;27;8973;-79
2022/08/07 12:01:59;;;;;;;;;20.50;19.25;;;;;32.96;nan;99328.03;5098919;27;8992;-78
2022/08/07 12:04:45;;;;;;;;;21.00;19.00;;;;;33.73;nan;99332.13;5103800;27;8872;-81
2022/08/07 12:07:24;;;;;;;;;16.25;15.75;;;;;34.48;nan;99325.41;5107232;27;8850;-80
2022/08/07 12:10:02;;;;;;;;;15.50;15.50;;;;;34.97;nan;99332.97;5116046;27;9619;-81
2022/08/07 12:12:37;;;;;;;;;10.00;9.50;;;;;35.55;nan;99326.75;5090722;28;8834;-80
2022/08/07 12:15:15;;;;;;;;;14.75;14.75;;;;;36.04;nan;99331.38;5111405;28;8852;-80
2022/08/07 12:17:49;;;;;;;;;18.50;18.00;;;;;35.98;nan;99329.34;5092000;28;8857;-82
2022/08/07 12:20:32;;;;;;;;;19.75;18.00;;;;;36.32;nan;99323.75;5128695;27;8872;-82
2022/08/07 12:23:16;;;;;;;;;16.00;16.00;;;;;35.61;nan;99327.94;5121403;27;9650;-78
2022/08/07 12:25:52;;;;;;;;;16.75;15.25;;;;;36.06;nan;99323.91;5108461;27;8861;-79
2022/08/07 12:28:43;;;;;;;;;18.00;18.00;;;;;35.19;nan;99326.16;5104225;28;8857;-84
2022/08/07 12:31:17;;;;;;;;;14.50;14.00;;;;;35.22;nan;99314.97;5104052;27;8854;-80
2022/08/07 12:33:53;;;;;;;;;15.50;15.50;;;;;35.99;nan;99322.88;5107534;27;8854;-80
2022/08/07 12:36:33;;;;;;;;;14.50;14.50;;;;;36.76;nan;99315.16;5107081;27;9633;-80
2022/08/07 12:39:05;;;;;;;;;15.50;15.00;;;;;37.58;nan;99311.16;5108765;28;8868;-81
2022/08/07 12:41:39;;;;;;;;;17.00;15.75;;;;;38.34;nan;99313.94;5093479;28;8983;-80
2022/08/07 12:44:19;;;;;;;;;15.00;15.00;;;;;37.84;nan;99319.81;5110492;28;9578;-80
2022/08/07 12:47:02;;;;;;;;;16.00;15.00;;;;;38.97;nan;99304.38;5112458;27;8971;-82
2022/08/07 12:49:52;;;;;;;;;15.00;15.00;;;;;36.56;nan;99314.69;5115960;27;8901;-81
2022/08/07 12:52:35;;;;;;;;;13.75;13.25;;;;;37.72;nan;99309.56;5127349;27;8882;-84